WEATHER DATA

TODAY
Time Temp. Dewp. Hum. Bar.
00:07 4.7 2.9 88 976.5
00:17 4.7 2.9 88 976.8
00:28 4.7 2.9 88 977.1
00:38 4.7 2.9 88 977.3
00:48 4.6 2.9 89 977.3
00:58 4.5 2.8 89 977.7
01:08 4.4 2.7 89 978
01:18 4.3 2.7 89 978.1
01:28 4.3 2.7 89 978.2
01:39 4.2 2.6 89 978.3
01:49 4.2 2.6 89 978.4
01:58 4.1 2.5 89 978.9
02:08 3.9 2.3 89 979.3
02:19 3.8 2.2 89 979.5
02:29 3.8 2.2 89 979.7
02:39 3.7 2.2 90 979.9
02:49 3.7 2.2 90 980.1
02:59 3.7 2.2 90 980.3
03:09 3.8 2.3 90 980.5
03:19 4 2.5 90 980.7
03:30 4.2 2.6 89 980.8
03:40 4.4 2.7 89 981
03:50 4.7 2.9 88 981.2
04:00 4.8 2.8 87 981.4
04:10 4.9 2.8 86 981.5
04:20 5 2.7 85 981.7
04:30 5.1 2.8 85 981.8
04:40 5.1 2.8 85 982
04:51 5 2.7 85 982.6
05:01 5.1 2.8 85 982.8
05:11 5 2.5 84 983.2
05:21 5 2.5 84 983.5
05:31 5 2.5 84 983.8
05:41 4.9 2.1 82 983.8
05:51 4.8 1.8 81 984.2
06:02 4.7 1.7 81 984.2
06:12 4.5 1.5 81 984.3
06:21 4.4 1.3 80 984.5
06:32 4.3 1 79 984.6
06:42 4.3 0.8 78 984.9
06:52 4.4 0.9 78 985
07:02 4.3 0.6 77 985.2
07:13 4.3 0.6 77 985.4
07:23 4.3 0.6 77 985.6
07:32 4.3 0.8 78 985.7
07:43 4.2 0.9 79 985.8
07:53 4.1 1 80 985.9
08:03 4.1 1.1 81 986.1
08:13 4.1 1.3 82 986.2
08:23 4.2 1.4 82 986.3
08:33 4.3 1.5 82 986.3
08:43 4.5 1.7 82 986.4
08:53 4.7 1.9 82 986.3
09:04 4.8 1.8 81 986.1
09:14 5 2 81 986
09:24 5.2 2 80 985.7
09:34 5.6 2.4 80 985.7
09:44 6 2.8 80 985.5
09:54 6.3 2.9 79 985.3
10:04 6.5 2.9 78 985
10:15 6.8 3.2 78 985.2
10:25 7.1 3.5 78 985
10:35 7.2 3.6 78 985.2
10:44 7.3 3.5 77 985.1
10:55 7.4 3.5 76 985.1
11:05 7.6 3.3 74 985.2
11:15 8 3.1 71 985.4
11:25 8 2.9 70 985.2
11:36 7.8 2.7 70 985.7
11:46 7.4 3.3 75 986.4
11:55 6.9 2.4 73 986.5
12:06 7 1.9 70 986.3
12:16 7.3 2 69 986.5
12:26 7.4 2.1 69 986.6
12:35 7.5 2 68 986.7
12:46 7.6 2.1 68 987.3
12:56 7.6 2.1 68 987.2
13:06 7.6 1.9 67 987.6
13:16 7.6 1.9 67 987.7
13:26 7.5 1.8 67 987.8
13:36 7.4 1.7 67 987.8
13:46 7.2 1.5 67 988
13:56 7.2 1.3 66 988.2
14:06 7.2 1.3 66 988.5
14:16 7 1.5 68 988.5
14:27 7 1.5 68 988.8
14:36 7 1.5 68 988.7
14:46 6.9 1.6 69 989.1
14:56 6.8 1.5 69 989.2
15:07 6.5 1.4 70 989.3
15:16 6.3 1.6 72 989.5
15:26 6.1 1.4 72 989.6
15:37 5.9 1.4 73 989.6
15:47 5.7 1.2 73 989.9
15:57 5.6 1 72 990.1
16:07 5.6 1 72 990.3
16:17 5.5 0.9 72 990.2
16:27 5.4 1 73 990.3
16:37 5.3 0.9 73 990.2
16:47 5.3 0.7 72 990.4
16:57 5.3 0.7 72 990.5
17:07 5.3 0.5 71 990.5
17:17 5.3 0.5 71 990.6
17:28 5.3 0.5 71 990.5
17:38 5.2 0.6 72 990.5
17:48 5.1 0.5 72 990.4
17:58 5.2 0.6 72 990.2
18:08 5.3 0.7 72 990
18:18 5.4 1 73 989.9
18:28 5.4 1 73 989.7
18:39 5.5 1.1 73 989.5
18:49 5.5 1.1 73 989.2
18:58 5.5 1.1 73 989.1
19:08 5.5 1.2 74 988.9
19:19 5.5 1.4 75 988.6
19:29 5.5 1.4 75 988.4
19:39 5.5 1.4 75 988.1
19:50 5.5 1.6 76 987.7
19:59 5.7 2 77 987.8
20:19 6 2.6 79 987.1
20:30 6.1 2.9 80 986.7
20:40 6.3 3.1 80 986.5
21:00 7.1 3.7 79 986
21:10 7.3 3.9 79 986.1

DAY STATISTIC

2019-12-14
TEMPERATURE
AVERAGE
5.5
HIGH
8.0
11:15
LOW
3.7
02:39
PRESSURE
AVERAGE
985.4
HIGH
990.6
17:17
LOW
976.5
00:07
DEWPOINT
AVERAGE
1.9
HIGH
3.9
21:10
LOW
0.5
17:07
HUMIDITY
AVERAGE
78
HIGH
90
02:39
LOW
66
13:56
TEMPERATURE (°C)
LOW
3.7
HIGH
8.0
AVERAGE
5.5
PRESSURE (hpa)
LOW
976.5
HIGH
990.6
AVERAGE
985.4
DEVICE